Time,TemperatureF,DewpointF,PressureIn,WindDirection,WindDirectionDegrees,WindSpeedMPH,WindSpeedGustMPH,Humidity,HourlyPrecipIn,Conditions,Clouds,dailyrainin,SoftwareType,DateUTC
2013-05-05 00:01:00,53.8,40.2,30.10,SE,141,0.0,0.0,60,0.00,,,0.00,SomeHackedPerlScript,2013-05-05 04:01:00,
2013-05-05 00:06:00,53.5,40.1,30.10,SE,141,0.0,0.0,60,0.00,,,0.00,SomeHackedPerlScript,2013-05-05 04:06:00,
2013-05-05 00:11:00,53.3,40.3,30.10,SE,141,0.0,0.0,61,0.00,,,0.00,SomeHackedPerlScript,2013-05-05 04:11:00,
2013-05-05 00:16:00,53.0,40.3,30.10,SE,141,0.0,0.0,62,0.00,,,0.00,SomeHackedPerlScript,2013-05-05 04:16:00,
2013-05-05 00:21:00,52.7,40.4,30.10,SE,141,0.0,0.0,62,0.00,,,0.00,SomeHackedPerlScript,2013-05-05 04:21:00,
2013-05-05 00:26:00,52.5,40.4,30.10,SE,141,0.0,0.0,63,0.00,,,0.00,SomeHackedPerlScript,2013-05-05 04:26:00,
2013-05-05 00:31:00,52.3,40.2,30.10,SE,141,0.0,0.0,63,0.00,,,0.00,SomeHackedPerlScript,2013-05-05 04:31:00,
2013-05-05 00:36:00,52.0,40.1,30.10,SE,141,0.0,0.0,63,0.00,,,0.00,SomeHackedPerlScript,2013-05-05 04:36:00,
2013-05-05 00:41:00,51.9,40.5,30.10,SE,141,0.0,0.0,65,0.00,,,0.00,SomeHackedPerlScript,2013-05-05 04:41:00,
2013-05-05 00:46:00,51.7,40.4,30.10,SE,141,0.0,0.0,65,0.00,,,0.00,SomeHackedPerlScript,2013-05-05 04:46:00,
2013-05-05 00:51:00,51.4,40.5,30.10,SE,141,0.0,0.0,66,0.00,,,0.00,SomeHackedPerlScript,2013-05-05 04:51:00,
2013-05-05 00:56:00,51.4,41.2,30.10,SE,141,0.0,0.0,68,0.00,,,0.00,SomeHackedPerlScript,2013-05-05 04:56:00,
2013-05-05 01:01:00,51.3,41.4,30.10,SE,141,0.0,0.0,68,0.00,,,0.00,SomeHackedPerlScript,2013-05-05 05:01:00,
2013-05-05 01:06:00,51.3,41.6,30.10,SE,141,0.0,0.0,69,0.00,,,0.00,SomeHackedPerlScript,2013-05-05 05:06:00,
2013-05-05 01:11:00,51.3,42.0,30.10,SE,141,0.0,0.0,70,0.00,,,0.00,SomeHackedPerlScript,2013-05-05 05:11:00,
2013-05-05 01:16:00,51.2,42.0,30.10,SE,141,0.0,0.0,70,0.00,,,0.00,SomeHackedPerlScript,2013-05-05 05:16:00,
2013-05-05 01:21:00,51.1,42.0,30.10,SE,141,0.0,0.0,71,0.00,,,0.00,SomeHackedPerlScript,2013-05-05 05:21:00,
2013-05-05 01:26:00,51.0,42.3,30.10,SE,141,0.0,0.0,72,0.00,,,0.00,SomeHackedPerlScript,2013-05-05 05:26:00,
2013-05-05 01:31:00,50.8,42.4,30.10,SE,141,0.0,0.0,72,0.00,,,0.00,SomeHackedPerlScript,2013-05-05 05:31:00,
2013-05-05 01:36:00,50.5,42.1,30.10,SE,141,0.0,0.0,72,0.00,,,0.00,SomeHackedPerlScript,2013-05-05 05:36:00,
2013-05-05 01:41:00,50.5,42.2,30.10,SE,141,0.0,0.0,73,0.00,,,0.00,SomeHackedPerlScript,2013-05-05 05:41:00,
2013-05-05 01:46:00,50.2,42.1,30.10,SE,141,0.0,0.0,73,0.00,,,0.00,SomeHackedPerlScript,2013-05-05 05:46:00,
2013-05-05 01:51:00,49.9,41.6,30.10,SE,141,0.0,0.0,73,0.00,,,0.00,SomeHackedPerlScript,2013-05-05 05:51:00,
2013-05-05 01:56:00,49.9,41.7,30.09,SE,141,0.0,0.0,73,0.00,,,0.00,SomeHackedPerlScript,2013-05-05 05:56:00,
2013-05-05 02:01:00,49.6,41.5,30.09,SE,141,0.0,0.0,73,0.00,,,0.00,SomeHackedPerlScript,2013-05-05 06:01:00,
2013-05-05 02:06:00,49.5,41.8,30.09,SE,141,0.0,0.0,74,0.00,,,0.00,SomeHackedPerlScript,2013-05-05 06:06:00,
2013-05-05 02:11:00,49.3,41.8,30.09,SE,141,0.0,0.0,75,0.00,,,0.00,SomeHackedPerlScript,2013-05-05 06:11:00,
2013-05-05 02:16:00,49.3,41.9,30.09,SE,141,0.0,0.0,75,0.00,,,0.00,SomeHackedPerlScript,2013-05-05 06:16:00,
2013-05-05 02:21:00,49.1,41.7,30.09,SE,141,0.0,0.0,75,0.00,,,0.00,SomeHackedPerlScript,2013-05-05 06:21:00,
2013-05-05 02:26:00,49.0,41.7,30.09,SE,141,0.0,0.0,75,0.00,,,0.00,SomeHackedPerlScript,2013-05-05 06:26:00,
2013-05-05 02:31:00,48.8,41.5,30.09,SE,141,0.0,0.0,75,0.00,,,0.00,SomeHackedPerlScript,2013-05-05 06:31:00,
2013-05-05 02:36:00,48.9,41.8,30.08,SE,141,0.0,0.0,76,0.00,,,0.00,SomeHackedPerlScript,2013-05-05 06:36:00,
2013-05-05 02:41:00,48.9,41.9,30.08,SE,141,0.0,0.0,76,0.00,,,0.00,SomeHackedPerlScript,2013-05-05 06:41:00,
2013-05-05 02:46:00,48.8,41.9,30.08,SE,141,0.0,0.0,76,0.00,,,0.00,SomeHackedPerlScript,2013-05-05 06:46:00,
2013-05-05 02:51:00,48.7,41.8,30.08,SE,141,0.0,0.0,77,0.00,,,0.00,SomeHackedPerlScript,2013-05-05 06:51:00,
2013-05-05 02:56:00,48.6,41.7,30.08,SE,141,0.0,0.0,76,0.00,,,0.00,SomeHackedPerlScript,2013-05-05 06:56:00,
2013-05-05 03:01:00,48.5,41.5,30.08,SE,141,0.0,0.0,76,0.00,,,0.00,SomeHackedPerlScript,2013-05-05 07:01:00,
2013-05-05 03:06:00,48.4,41.4,30.08,SE,141,0.0,0.0,76,0.00,,,0.00,SomeHackedPerlScript,2013-05-05 07:06:00,
2013-05-05 03:11:00,48.2,41.4,30.08,SE,141,0.0,0.0,77,0.00,,,0.00,SomeHackedPerlScript,2013-05-05 07:11:00,
2013-05-05 03:16:00,48.2,41.5,30.08,SE,141,0.0,0.0,77,0.00,,,0.00,SomeHackedPerlScript,2013-05-05 07:16:00,
2013-05-05 03:21:00,48.1,41.7,30.08,SE,141,0.0,0.0,78,0.00,,,0.00,SomeHackedPerlScript,2013-05-05 07:21:00,
2013-05-05 03:26:00,48.0,41.9,30.08,SE,141,0.0,0.0,79,0.00,,,0.00,SomeHackedPerlScript,2013-05-05 07:26:00,
2013-05-05 03:31:00,48.0,42.0,30.08,SE,141,0.0,0.0,79,0.00,,,0.00,SomeHackedPerlScript,2013-05-05 07:31:00,
2013-05-05 03:36:00,48.0,42.2,30.08,SE,141,0.0,0.0,80,0.00,,,0.00,SomeHackedPerlScript,2013-05-05 07:36:00,
2013-05-05 03:41:00,47.9,42.2,30.08,SE,141,0.0,0.0,80,0.00,,,0.00,SomeHackedPerlScript,2013-05-05 07:41:00,
2013-05-05 03:46:00,47.8,42.2,30.08,SE,141,0.0,0.0,80,0.00,,,0.00,SomeHackedPerlScript,2013-05-05 07:46:00,
2013-05-05 03:51:00,47.7,42.2,30.08,SE,141,0.0,0.0,81,0.00,,,0.00,SomeHackedPerlScript,2013-05-05 07:51:00,
2013-05-05 03:56:00,47.6,42.3,30.08,SE,141,0.0,0.0,81,0.00,,,0.00,SomeHackedPerlScript,2013-05-05 07:56:00,
2013-05-05 04:01:00,47.7,42.6,30.08,SE,141,0.0,0.0,82,0.00,,,0.00,SomeHackedPerlScript,2013-05-05 08:01:00,
2013-05-05 04:06:00,47.6,42.6,30.08,SE,141,0.0,0.0,82,0.00,,,0.00,SomeHackedPerlScript,2013-05-05 08:06:00,
2013-05-05 04:11:00,47.6,42.6,30.08,SE,141,0.0,0.0,82,0.00,,,0.00,SomeHackedPerlScript,2013-05-05 08:11:00,
2013-05-05 04:16:00,47.6,42.6,30.08,SE,141,0.0,0.0,82,0.00,,,0.00,SomeHackedPerlScript,2013-05-05 08:16:00,
2013-05-05 04:21:00,47.4,42.5,30.08,SE,141,0.0,0.0,83,0.00,,,0.00,SomeHackedPerlScript,2013-05-05 08:21:00,
2013-05-05 04:26:00,47.3,42.6,30.08,SE,141,0.0,0.0,83,0.00,,,0.00,SomeHackedPerlScript,2013-05-05 08:26:00,
2013-05-05 04:31:00,47.3,42.8,30.08,SE,141,0.0,0.0,84,0.00,,,0.00,SomeHackedPerlScript,2013-05-05 08:31:00,
2013-05-05 04:36:00,47.2,42.9,30.07,SE,141,0.0,0.0,84,0.00,,,0.00,SomeHackedPerlScript,2013-05-05 08:36:00,
2013-05-05 04:41:00,47.3,43.1,30.08,SE,141,0.0,0.0,85,0.00,,,0.00,SomeHackedPerlScript,2013-05-05 08:41:00,
2013-05-05 04:46:00,47.2,43.1,30.08,SE,141,0.0,0.0,85,0.00,,,0.00,SomeHackedPerlScript,2013-05-05 08:46:00,
2013-05-05 04:51:00,47.1,43.1,30.07,SE,141,0.0,0.0,86,0.00,,,0.00,SomeHackedPerlScript,2013-05-05 08:51:00,
2013-05-05 04:56:00,47.1,43.4,30.07,SE,141,0.0,0.0,86,0.00,,,0.00,SomeHackedPerlScript,2013-05-05 08:56:00,
2013-05-05 05:01:00,47.3,43.6,30.08,SE,141,0.0,0.0,87,0.00,,,0.00,SomeHackedPerlScript,2013-05-05 09:01:00,
2013-05-05 05:06:00,47.2,43.5,30.08,SE,141,0.0,0.0,87,0.00,,,0.00,SomeHackedPerlScript,2013-05-05 09:06:00,
2013-05-05 05:11:00,47.2,43.6,30.08,SE,141,0.0,0.0,87,0.00,,,0.00,SomeHackedPerlScript,2013-05-05 09:11:00,
2013-05-05 05:16:00,47.2,43.6,30.08,SE,141,0.0,0.0,87,0.00,,,0.00,SomeHackedPerlScript,2013-05-05 09:16:00,
2013-05-05 05:21:00,47.2,43.7,30.07,SE,141,0.0,0.0,87,0.00,,,0.00,SomeHackedPerlScript,2013-05-05 09:21:00,
2013-05-05 05:26:00,47.2,43.7,30.08,SE,141,0.0,0.0,87,0.00,,,0.00,SomeHackedPerlScript,2013-05-05 09:26:00,
2013-05-05 05:31:00,47.2,43.8,30.07,SE,141,0.0,0.0,88,0.00,,,0.00,SomeHackedPerlScript,2013-05-05 09:31:00,
2013-05-05 05:36:00,47.2,43.9,30.08,SE,141,0.0,0.0,88,0.00,,,0.00,SomeHackedPerlScript,2013-05-05 09:36:00,
2013-05-05 05:41:00,47.3,44.0,30.08,SE,141,0.0,0.0,88,0.00,,,0.00,SomeHackedPerlScript,2013-05-05 09:41:00,
2013-05-05 05:46:00,47.3,43.9,30.08,SE,141,0.0,0.0,88,0.00,,,0.00,SomeHackedPerlScript,2013-05-05 09:46:00,
2013-05-05 05:51:00,47.3,43.9,30.08,SE,141,0.0,0.0,87,0.00,,,0.00,SomeHackedPerlScript,2013-05-05 09:51:00,
2013-05-05 05:56:00,47.4,43.8,30.08,SE,141,0.0,0.0,87,0.00,,,0.00,SomeHackedPerlScript,2013-05-05 09:56:00,
2013-05-05 06:01:00,47.4,43.6,30.08,NNW,342,2.4,0.0,86,0.00,,,0.00,SomeHackedPerlScript,2013-05-05 10:01:00,
2013-05-05 06:06:00,47.7,43.6,30.08,NE,40,0.4,2.8,85,0.00,,,0.00,SomeHackedPerlScript,2013-05-05 10:06:00,
2013-05-05 06:11:00,47.9,43.6,30.08,North,9,0.0,3.0,84,0.00,,,0.00,SomeHackedPerlScript,2013-05-05 10:11:00,
2013-05-05 06:16:00,47.9,43.4,30.08,North,9,0.0,2.7,84,0.00,,,0.00,SomeHackedPerlScript,2013-05-05 10:16:00,
2013-05-05 06:21:00,47.9,43.3,30.08,North,9,0.0,0.0,83,0.00,,,0.00,SomeHackedPerlScript,2013-05-05 10:21:00,
2013-05-05 06:26:00,48.0,43.3,30.08,North,9,0.0,0.0,83,0.00,,,0.00,SomeHackedPerlScript,2013-05-05 10:26:00,
2013-05-05 06:31:00,47.9,43.2,30.08,North,9,0.0,0.0,83,0.00,,,0.00,SomeHackedPerlScript,2013-05-05 10:31:00,
2013-05-05 06:36:00,47.8,43.1,30.09,North,9,0.0,0.0,83,0.00,,,0.00,SomeHackedPerlScript,2013-05-05 10:36:00,
2013-05-05 06:41:00,47.8,43.2,30.08,North,9,0.0,0.0,84,0.00,,,0.00,SomeHackedPerlScript,2013-05-05 10:41:00,
2013-05-05 06:46:00,47.6,43.1,30.09,North,9,0.0,0.0,84,0.00,,,0.00,SomeHackedPerlScript,2013-05-05 10:46:00,
2013-05-05 06:51:00,47.6,43.2,30.09,North,9,0.0,0.0,84,0.00,,,0.00,SomeHackedPerlScript,2013-05-05 10:51:00,
2013-05-05 06:56:00,47.5,43.1,30.09,NNE,30,1.1,0.0,84,0.00,,,0.00,SomeHackedPerlScript,2013-05-05 10:56:00,
2013-05-05 07:01:00,47.8,43.1,30.09,NNE,18,1.4,2.1,83,0.00,,,0.00,SomeHackedPerlScript,2013-05-05 11:01:00,
2013-05-05 07:06:00,48.3,43.4,30.09,NNE,14,0.0,3.3,83,0.00,,,0.00,SomeHackedPerlScript,2013-05-05 11:06:00,
2013-05-05 07:11:00,48.5,43.4,30.09,NE,52,1.7,1.9,82,0.00,,,0.00,SomeHackedPerlScript,2013-05-05 11:11:00,
2013-05-05 07:16:00,48.8,43.4,30.09,ENE,57,0.0,2.7,81,0.00,,,0.00,SomeHackedPerlScript,2013-05-05 11:16:00,
2013-05-05 07:21:00,49.2,43.5,30.09,NE,35,1.5,3.5,80,0.00,,,0.00,SomeHackedPerlScript,2013-05-05 11:21:00,
2013-05-05 07:26:00,49.3,43.3,30.09,NE,39,0.0,3.6,79,0.00,,,0.00,SomeHackedPerlScript,2013-05-05 11:26:00,
2013-05-05 07:31:00,49.5,43.4,30.09,NNE,33,0.9,2.7,79,0.00,,,0.00,SomeHackedPerlScript,2013-05-05 11:31:00,
2013-05-05 07:36:00,49.7,43.5,30.09,NNE,33,2.8,2.8,79,0.00,,,0.00,SomeHackedPerlScript,2013-05-05 11:36:00,
2013-05-05 07:41:00,49.8,43.3,30.09,NNE,28,1.1,4.2,78,0.00,,,0.00,SomeHackedPerlScript,2013-05-05 11:41:00,
2013-05-05 07:46:00,50.0,43.5,30.09,East,82,3.1,3.2,78,0.00,,,0.00,SomeHackedPerlScript,2013-05-05 11:46:00,
2013-05-05 07:51:00,50.1,43.5,30.09,ENE,63,1.6,3.4,78,0.00,,,0.00,SomeHackedPerlScript,2013-05-05 11:51:00,
2013-05-05 07:56:00,50.3,43.8,30.09,NNE,29,0.7,2.8,78,0.00,,,0.00,SomeHackedPerlScript,2013-05-05 11:56:00,
2013-05-05 08:01:00,50.4,43.7,30.09,NE,38,0.0,3.3,77,0.00,,,0.00,SomeHackedPerlScript,2013-05-05 12:01:00,
2013-05-05 08:06:00,50.7,44.0,30.09,NNE,23,0.0,2.0,77,0.00,,,0.00,SomeHackedPerlScript,2013-05-05 12:06:00,
2013-05-05 08:11:00,50.9,44.1,30.09,NNE,15,1.3,3.3,77,0.00,,,0.00,SomeHackedPerlScript,2013-05-05 12:11:00,
2013-05-05 08:16:00,51.0,44.1,30.10,NNE,12,0.0,2.5,77,0.00,,,0.00,SomeHackedPerlScript,2013-05-05 12:16:00,
2013-05-05 08:21:00,51.4,44.4,30.10,NE,42,2.2,2.2,76,0.00,,,0.00,SomeHackedPerlScript,2013-05-05 12:21:00,
2013-05-05 08:26:00,51.9,44.4,30.10,NNE,28,3.1,3.1,75,0.00,,,0.00,SomeHackedPerlScript,2013-05-05 12:26:00,
2013-05-05 08:31:00,52.6,44.8,30.10,NNE,29,0.2,3.4,74,0.00,,,0.00,SomeHackedPerlScript,2013-05-05 12:31:00,
2013-05-05 08:36:00,53.1,44.8,30.09,NE,39,0.0,3.2,73,0.00,,,0.00,SomeHackedPerlScript,2013-05-05 12:36:00,
2013-05-05 08:41:00,53.7,44.8,30.09,ENE,63,3.5,4.5,71,0.00,,,0.00,SomeHackedPerlScript,2013-05-05 12:41:00,
2013-05-05 08:46:00,54.2,44.3,30.09,NE,47,0.0,4.0,69,0.00,,,0.00,SomeHackedPerlScript,2013-05-05 12:46:00,
2013-05-05 08:51:00,54.9,44.3,30.09,NE,36,1.3,4.8,67,0.00,,,0.00,SomeHackedPerlScript,2013-05-05 12:51:00,
2013-05-05 08:56:00,55.5,44.9,30.09,North,7,0.0,4.0,67,0.00,,,0.00,SomeHackedPerlScript,2013-05-05 12:56:00,
2013-05-05 09:01:00,56.0,44.6,30.09,North,7,0.0,2.5,65,0.00,,,0.00,SomeHackedPerlScript,2013-05-05 13:01:00,
2013-05-05 09:06:00,56.6,44.7,30.09,NE,47,0.0,0.0,64,0.00,,,0.00,SomeHackedPerlScript,2013-05-05 13:06:00,
2013-05-05 09:11:00,57.2,44.4,30.10,ENE,62,3.3,3.3,62,0.00,,,0.00,SomeHackedPerlScript,2013-05-05 13:11:00,
2013-05-05 09:16:00,57.7,44.5,30.10,NE,34,3.3,6.3,61,0.00,,,0.00,SomeHackedPerlScript,2013-05-05 13:16:00,
2013-05-05 09:21:00,58.1,45.3,30.10,North,11,0.0,5.0,62,0.00,,,0.00,SomeHackedPerlScript,2013-05-05 13:21:00,
2013-05-05 09:26:00,58.7,45.2,30.10,ENE,69,0.0,2.7,60,0.00,,,0.00,SomeHackedPerlScript,2013-05-05 13:26:00,
2013-05-05 09:31:00,59.2,45.0,30.10,ENE,67,0.0,3.3,59,0.00,,,0.00,SomeHackedPerlScript,2013-05-05 13:31:00,
2013-05-05 09:36:00,59.6,44.5,30.10,East,86,1.4,4.1,57,0.00,,,0.00,SomeHackedPerlScript,2013-05-05 13:36:00,
2013-05-05 09:41:00,60.0,45.2,30.10,SW,222,1.6,4.1,58,0.00,,,0.00,SomeHackedPerlScript,2013-05-05 13:41:00,
2013-05-05 09:46:00,60.3,44.9,30.10,ENE,74,2.3,5.5,56,0.00,,,0.00,SomeHackedPerlScript,2013-05-05 13:46:00,
2013-05-05 09:51:00,60.7,45.1,30.10,ENE,69,1.7,5.0,56,0.00,,,0.00,SomeHackedPerlScript,2013-05-05 13:51:00,
2013-05-05 09:56:00,61.3,45.1,30.10,East,93,0.0,4.5,55,0.00,,,0.00,SomeHackedPerlScript,2013-05-05 13:56:00,
2013-05-05 10:01:00,61.8,45.9,30.10,East,97,0.0,4.0,55,0.00,,,0.00,SomeHackedPerlScript,2013-05-05 14:01:00,
2013-05-05 10:06:00,62.6,45.1,30.09,East,97,0.0,3.2,52,0.00,,,0.00,SomeHackedPerlScript,2013-05-05 14:06:00,
2013-05-05 10:11:00,63.2,45.2,30.09,South,170,0.0,0.0,51,0.00,,,0.00,SomeHackedPerlScript,2013-05-05 14:11:00,
2013-05-05 10:16:00,63.8,46.7,30.09,SE,129,2.6,2.9,53,0.00,,,0.00,SomeHackedPerlScript,2013-05-05 14:16:00,
2013-05-05 10:21:00,64.6,44.9,30.09,ESE,109,1.7,3.5,48,0.00,,,0.00,SomeHackedPerlScript,2013-05-05 14:21:00,
2013-05-05 10:26:00,65.1,45.6,30.09,SE,125,0.4,7.4,49,0.00,,,0.00,SomeHackedPerlScript,2013-05-05 14:26:00,
2013-05-05 10:31:00,65.4,45.2,30.09,SW,223,0.6,5.3,47,0.00,,,0.00,SomeHackedPerlScript,2013-05-05 14:31:00,
2013-05-05 10:36:00,66.0,45.2,30.09,East,91,0.0,5.1,46,0.00,,,0.00,SomeHackedPerlScript,2013-05-05 14:36:00,
2013-05-05 10:41:00,66.5,45.8,30.09,South,180,2.1,5.1,47,0.00,,,0.00,SomeHackedPerlScript,2013-05-05 14:41:00,
2013-05-05 10:46:00,67.0,47.2,30.09,South,169,1.3,6.5,49,0.00,,,0.00,SomeHackedPerlScript,2013-05-05 14:46:00,
2013-05-05 10:51:00,67.3,46.7,30.09,South,186,0.0,5.3,47,0.00,,,0.00,SomeHackedPerlScript,2013-05-05 14:51:00,
2013-05-05 10:56:00,67.5,44.9,30.09,SSE,151,2.5,7.2,44,0.00,,,0.00,SomeHackedPerlScript,2013-05-05 14:56:00,
2013-05-05 11:01:00,67.7,45.9,30.09,South,173,0.0,9.7,45,0.00,,,0.00,SomeHackedPerlScript,2013-05-05 15:01:00,
2013-05-05 11:06:00,68.0,45.5,30.09,South,177,7.0,7.0,44,0.00,,,0.00,SomeHackedPerlScript,2013-05-05 15:06:00,
2013-05-05 11:11:00,67.9,45.2,30.09,SSE,167,1.4,9.2,44,0.00,,,0.00,SomeHackedPerlScript,2013-05-05 15:11:00,
2013-05-05 11:16:00,68.4,46.2,30.09,SE,142,2.3,5.6,45,0.00,,,0.00,SomeHackedPerlScript,2013-05-05 15:16:00,
2013-05-05 11:21:00,69.0,48.3,30.09,South,173,0.0,5.4,47,0.00,,,0.00,SomeHackedPerlScript,2013-05-05 15:21:00,
2013-05-05 11:26:00,69.0,45.8,30.09,ESE,116,2.3,7.4,43,0.00,,,0.00,SomeHackedPerlScript,2013-05-05 15:26:00,
2013-05-05 11:31:00,69.2,46.1,30.09,SSE,158,2.7,6.7,43,0.00,,,0.00,SomeHackedPerlScript,2013-05-05 15:31:00,
2013-05-05 11:36:00,69.3,46.3,30.09,ENE,66,6.3,6.3,43,0.00,,,0.00,SomeHackedPerlScript,2013-05-05 15:36:00,
2013-05-05 11:41:00,69.5,47.0,30.09,ESE,112,0.0,8.4,44,0.00,,,0.00,SomeHackedPerlScript,2013-05-05 15:41:00,
2013-05-05 11:46:00,69.5,45.2,30.09,SSW,200,1.4,5.3,41,0.00,,,0.00,SomeHackedPerlScript,2013-05-05 15:46:00,
2013-05-05 11:50:00,70.1,45.1,30.08,ESE,119,5.2,7.3,40,0.00,,,0.00,SomeHackedPerlScript,2013-05-05 15:50:00,
2013-05-05 11:55:00,70.8,46.7,30.09,SSW,206,3.0,8.0,42,0.00,,,0.00,SomeHackedPerlScript,2013-05-05 15:55:00,
2013-05-05 12:00:00,71.0,45.8,30.09,SE,139,0.4,8.4,40,0.00,,,0.00,SomeHackedPerlScript,2013-05-05 16:00:00,
2013-05-05 12:05:00,71.1,45.1,30.09,East,92,3.3,8.4,39,0.00,,,0.00,SomeHackedPerlScript,2013-05-05 16:05:00,
2013-05-05 12:10:00,71.6,43.5,30.08,SE,136,0.9,11.0,36,0.00,,,0.00,SomeHackedPerlScript,2013-05-05 16:10:00,
2013-05-05 12:15:00,72.1,44.6,30.08,South,181,4.6,7.1,37,0.00,,,0.00,SomeHackedPerlScript,2013-05-05 16:15:00,
2013-05-05 12:20:00,72.2,46.3,30.08,ESE,121,0.0,8.1,39,0.00,,,0.00,SomeHackedPerlScript,2013-05-05 16:20:00,
2013-05-05 12:25:00,72.7,43.4,30.08,NE,38,3.7,6.9,34,0.00,,,0.00,SomeHackedPerlScript,2013-05-05 16:25:00,
2013-05-05 12:30:00,72.7,41.7,30.08,South,176,6.1,10.7,32,0.00,,,0.00,SomeHackedPerlScript,2013-05-05 16:30:00,
2013-05-05 12:35:00,72.7,43.0,30.08,SE,132,3.2,9.1,34,0.00,,,0.00,SomeHackedPerlScript,2013-05-05 16:35:00,
2013-05-05 12:40:00,72.8,45.2,30.08,ESE,112,3.8,8.7,37,0.00,,,0.00,SomeHackedPerlScript,2013-05-05 16:40:00,
2013-05-05 12:45:00,72.7,42.3,30.08,ESE,114,1.4,8.1,33,0.00,,,0.00,SomeHackedPerlScript,2013-05-05 16:45:00,
2013-05-05 12:50:00,72.7,42.9,30.08,ESE,110,4.1,9.5,34,0.00,,,0.00,SomeHackedPerlScript,2013-05-05 16:50:00,
2013-05-05 12:55:00,72.8,41.9,30.08,South,176,2.1,11.0,32,0.00,,,0.00,SomeHackedPerlScript,2013-05-05 16:55:00,
2013-05-05 13:00:00,72.8,40.8,30.07,ENE,63,0.9,9.8,31,0.00,,,0.00,SomeHackedPerlScript,2013-05-05 17:00:00,
2013-05-05 13:05:00,73.1,43.9,30.08,South,173,7.5,10.8,35,0.00,,,0.00,SomeHackedPerlScript,2013-05-05 17:05:00,
2013-05-05 13:10:00,73.0,42.4,30.07,SSW,201,4.9,9.7,33,0.00,,,0.00,SomeHackedPerlScript,2013-05-05 17:10:00,
2013-05-05 13:15:00,73.1,44.3,30.07,SSW,207,2.5,10.4,35,0.00,,,0.00,SomeHackedPerlScript,2013-05-05 17:15:00,
2013-05-05 13:20:00,73.2,40.5,30.07,SSE,166,8.7,11.5,30,0.00,,,0.00,SomeHackedPerlScript,2013-05-05 17:20:00,
2013-05-05 13:25:00,73.6,43.6,30.07,ESE,105,5.1,13.0,34,0.00,,,0.00,SomeHackedPerlScript,2013-05-05 17:25:00,
2013-05-05 13:30:00,74.0,45.9,30.07,SSW,192,7.3,8.7,36,0.00,,,0.00,SomeHackedPerlScript,2013-05-05 17:30:00,
2013-05-05 13:35:00,73.7,41.9,30.07,SSE,155,4.2,12.0,31,0.00,,,0.00,SomeHackedPerlScript,2013-05-05 17:35:00,
2013-05-05 13:40:00,74.2,44.1,30.07,South,180,5.9,9.2,34,0.00,,,0.00,SomeHackedPerlScript,2013-05-05 17:40:00,
2013-05-05 13:45:00,73.8,41.9,30.06,ESE,103,2.5,10.6,31,0.00,,,0.00,SomeHackedPerlScript,2013-05-05 17:45:00,
2013-05-05 13:50:00,73.7,44.7,30.06,South,191,5.4,9.5,35,0.00,,,0.00,SomeHackedPerlScript,2013-05-05 17:50:00,
2013-05-05 13:55:00,73.5,41.5,30.06,SSE,161,3.5,9.4,31,0.00,,,0.00,SomeHackedPerlScript,2013-05-05 17:55:00,
2013-05-05 14:00:00,73.4,41.7,30.06,South,182,5.3,13.3,31,0.00,,,0.00,SomeHackedPerlScript,2013-05-05 18:00:00,
2013-05-05 14:05:00,74.0,44.5,30.06,SE,144,2.1,10.4,34,0.00,,,0.00,SomeHackedPerlScript,2013-05-05 18:05:00,
2013-05-05 14:10:00,74.9,43.3,30.06,ESE,117,3.3,7.6,32,0.00,,,0.00,SomeHackedPerlScript,2013-05-05 18:10:00,
2013-05-05 14:15:00,74.3,41.4,30.06,SE,145,4.3,11.3,30,0.00,,,0.00,SomeHackedPerlScript,2013-05-05 18:15:00,
2013-05-05 14:20:00,74.3,40.6,30.06,SSE,161,4.1,14.1,29,0.00,,,0.00,SomeHackedPerlScript,2013-05-05 18:20:00,
2013-05-05 14:25:00,74.6,41.2,30.06,ESE,115,0.2,13.0,30,0.00,,,0.00,SomeHackedPerlScript,2013-05-05 18:25:00,
2013-05-05 14:30:00,74.8,42.0,30.06,ESE,118,2.0,8.3,30,0.00,,,0.00,SomeHackedPerlScript,2013-05-05 18:30:00,
2013-05-05 14:35:00,74.7,42.0,30.06,SE,141,2.7,8.1,30,0.00,,,0.00,SomeHackedPerlScript,2013-05-05 18:35:00,
2013-05-05 14:40:00,74.8,42.2,30.05,WSW,251,0.4,12.5,31,0.00,,,0.00,SomeHackedPerlScript,2013-05-05 18:40:00,
2013-05-05 14:45:00,75.2,39.0,30.06,SSE,159,2.5,11.7,27,0.00,,,0.00,SomeHackedPerlScript,2013-05-05 18:45:00,
2013-05-05 14:50:00,75.2,39.2,30.05,South,172,8.4,8.4,27,0.00,,,0.00,SomeHackedPerlScript,2013-05-05 18:50:00,
2013-05-05 14:55:00,75.3,39.5,30.05,SE,142,3.5,13.0,27,0.00,,,0.00,SomeHackedPerlScript,2013-05-05 18:55:00,
2013-05-05 15:00:00,75.3,41.1,30.05,SW,225,1.0,10.0,29,0.00,,,0.00,SomeHackedPerlScript,2013-05-05 19:00:00,
2013-05-05 15:05:00,75.5,41.3,30.05,SE,143,6.4,10.6,29,0.00,,,0.00,SomeHackedPerlScript,2013-05-05 19:05:00,
2013-05-05 15:10:00,75.9,41.0,30.05,SSE,163,6.6,10.6,28,0.00,,,0.00,SomeHackedPerlScript,2013-05-05 19:10:00,
2013-05-05 15:15:00,76.2,40.3,30.05,ENE,57,1.2,12.9,27,0.00,,,0.00,SomeHackedPerlScript,2013-05-05 19:15:00,
2013-05-05 15:20:00,76.2,41.1,30.04,South,183,3.5,13.8,28,0.00,,,0.00,SomeHackedPerlScript,2013-05-05 19:20:00,
2013-05-05 15:25:00,76.2,37.2,30.04,ENE,57,10.4,10.4,24,0.00,,,0.00,SomeHackedPerlScript,2013-05-05 19:25:00,
2013-05-05 15:30:00,76.6,39.3,30.04,SSE,161,3.8,18.2,26,0.00,,,0.00,SomeHackedPerlScript,2013-05-05 19:30:00,
2013-05-05 15:35:00,77.0,40.2,30.04,SSE,147,6.2,10.0,26,0.00,,,0.00,SomeHackedPerlScript,2013-05-05 19:35:00,
2013-05-05 15:40:00,77.2,37.5,30.03,SSE,167,2.8,10.0,23,0.00,,,0.00,SomeHackedPerlScript,2013-05-05 19:40:00,
2013-05-05 15:45:00,77.7,35.9,30.03,ENE,61,6.4,8.9,22,0.00,,,0.00,SomeHackedPerlScript,2013-05-05 19:45:00,
2013-05-05 15:50:00,77.4,35.2,30.03,SW,230,1.5,12.8,21,0.00,,,0.00,SomeHackedPerlScript,2013-05-05 19:50:00,
2013-05-05 15:55:00,77.0,31.8,30.03,SE,145,2.1,10.5,19,0.00,,,0.00,SomeHackedPerlScript,2013-05-05 19:55:00,
2013-05-05 16:00:00,77.0,36.7,30.03,SE,136,2.4,15.1,23,0.00,,,0.00,SomeHackedPerlScript,2013-05-05 20:00:00,
2013-05-05 16:05:00,76.9,36.6,30.03,ESE,110,3.5,7.8,23,0.00,,,0.00,SomeHackedPerlScript,2013-05-05 20:05:00,
2013-05-05 16:10:00,77.1,38.2,30.03,ENE,64,8.1,11.8,24,0.00,,,0.00,SomeHackedPerlScript,2013-05-05 20:10:00,
2013-05-05 16:15:00,76.8,33.3,30.03,South,178,1.1,8.7,20,0.00,,,0.00,SomeHackedPerlScript,2013-05-05 20:15:00,
2013-05-05 16:20:00,76.8,37.3,30.03,SSE,158,3.0,9.7,24,0.00,,,0.00,SomeHackedPerlScript,2013-05-05 20:20:00,
2013-05-05 16:25:00,77.2,36.5,30.03,East,96,5.3,7.7,22,0.00,,,0.00,SomeHackedPerlScript,2013-05-05 20:25:00,
2013-05-05 16:30:00,77.3,35.3,30.03,South,175,3.1,9.5,21,0.00,,,0.00,SomeHackedPerlScript,2013-05-05 20:30:00,
2013-05-05 16:35:00,77.4,37.7,30.03,East,87,2.4,12.8,23,0.00,,,0.00,SomeHackedPerlScript,2013-05-05 20:35:00,
2013-05-05 16:40:00,77.4,32.6,30.02,SE,129,0.6,12.8,19,0.00,,,0.00,SomeHackedPerlScript,2013-05-05 20:40:00,
2013-05-05 16:45:00,77.8,36.3,30.02,South,176,1.2,6.3,22,0.00,,,0.00,SomeHackedPerlScript,2013-05-05 20:45:00,
2013-05-05 16:50:00,77.9,33.6,30.02,ESE,107,0.0,8.7,20,0.00,,,0.00,SomeHackedPerlScript,2013-05-05 20:50:00,
2013-05-05 16:55:00,77.5,30.5,30.02,East,86,6.0,6.6,17,0.00,,,0.00,SomeHackedPerlScript,2013-05-05 20:55:00,
2013-05-05 17:00:00,77.1,28.4,30.02,SSW,200,0.0,9.5,16,0.00,,,0.00,SomeHackedPerlScript,2013-05-05 21:00:00,
2013-05-05 17:05:00,76.7,28.4,30.02,SSW,200,8.9,8.9,16,0.00,,,0.00,SomeHackedPerlScript,2013-05-05 21:05:00,
2013-05-05 17:10:00,76.8,31.8,30.02,South,173,7.0,11.9,19,0.00,,,0.00,SomeHackedPerlScript,2013-05-05 21:10:00,
2013-05-05 17:15:00,76.6,27.2,30.02,SSE,166,3.6,10.7,16,0.00,,,0.00,SomeHackedPerlScript,2013-05-05 21:15:00,
2013-05-05 17:20:00,76.3,26.4,30.02,NE,38,3.6,8.1,15,0.00,,,0.00,SomeHackedPerlScript,2013-05-05 21:20:00,
2013-05-05 17:25:00,76.4,26.0,30.02,South,172,3.0,10.9,15,0.00,,,0.00,SomeHackedPerlScript,2013-05-05 21:25:00,
2013-05-05 17:30:00,76.1,19.6,30.02,ESE,112,4.8,10.7,11,0.00,,,0.00,SomeHackedPerlScript,2013-05-05 21:30:00,
2013-05-05 17:35:00,75.5,20.3,30.02,ESE,118,0.5,9.7,12,0.00,,,0.00,SomeHackedPerlScript,2013-05-05 21:35:00,
2013-05-05 17:40:00,75.2,24.9,30.02,SSE,147,3.9,9.2,15,0.00,,,0.00,SomeHackedPerlScript,2013-05-05 21:40:00,
2013-05-05 17:45:00,75.3,24.0,30.02,East,98,3.1,10.0,14,0.00,,,0.00,SomeHackedPerlScript,2013-05-05 21:45:00,
2013-05-05 17:50:00,74.8,21.8,30.02,SSE,157,7.6,9.1,13,0.00,,,0.00,SomeHackedPerlScript,2013-05-05 21:50:00,
2013-05-05 17:55:00,74.6,21.9,30.02,SSW,199,6.6,13.8,13,0.00,,,0.00,SomeHackedPerlScript,2013-05-05 21:55:00,
2013-05-05 18:00:00,74.5,26.6,30.02,South,169,1.0,11.0,16,0.00,,,0.00,SomeHackedPerlScript,2013-05-05 22:00:00,
2013-05-05 18:05:00,74.1,22.4,30.02,South,185,6.0,9.5,14,0.00,,,0.00,SomeHackedPerlScript,2013-05-05 22:05:00,
2013-05-05 18:10:00,74.0,24.8,30.02,ESE,109,8.9,12.8,15,0.00,,,0.00,SomeHackedPerlScript,2013-05-05 22:10:00,
2013-05-05 18:15:00,74.0,26.0,30.02,SSW,208,4.8,10.8,16,0.00,,,0.00,SomeHackedPerlScript,2013-05-05 22:15:00,
2013-05-05 18:20:00,74.2,29.8,30.01,South,182,3.5,12.8,19,0.00,,,0.00,SomeHackedPerlScript,2013-05-05 22:20:00,
2013-05-05 18:25:00,74.1,27.9,30.02,SE,127,11.8,11.8,18,0.00,,,0.00,SomeHackedPerlScript,2013-05-05 22:25:00,
2013-05-05 18:30:00,73.9,30.0,30.01,ESE,115,3.0,14.5,19,0.00,,,0.00,SomeHackedPerlScript,2013-05-05 22:30:00,
2013-05-05 18:35:00,73.8,30.7,30.01,ESE,119,4.8,11.6,20,0.00,,,0.00,SomeHackedPerlScript,2013-05-05 22:35:00,
2013-05-05 18:40:00,73.5,30.8,30.02,ESE,115,0.4,11.5,20,0.00,,,0.00,SomeHackedPerlScript,2013-05-05 22:40:00,
2013-05-05 18:45:00,73.3,33.1,30.01,ESE,117,0.0,8.5,22,0.00,,,0.00,SomeHackedPerlScript,2013-05-05 22:45:00,
2013-05-05 18:50:00,73.0,30.3,30.01,ESE,110,3.0,9.4,20,0.00,,,0.00,SomeHackedPerlScript,2013-05-05 22:50:00,
2013-05-05 18:55:00,72.7,33.6,30.01,SE,136,0.0,9.2,23,0.00,,,0.00,SomeHackedPerlScript,2013-05-05 22:55:00,
2013-05-05 19:00:00,72.4,33.6,30.01,East,97,0.0,4.5,24,0.00,,,0.00,SomeHackedPerlScript,2013-05-05 23:00:00,
2013-05-05 19:05:00,72.0,33.5,30.01,East,98,4.2,4.2,24,0.00,,,0.00,SomeHackedPerlScript,2013-05-05 23:05:00,
2013-05-05 19:10:00,71.7,35.0,30.02,SE,142,6.1,7.5,26,0.00,,,0.00,SomeHackedPerlScript,2013-05-05 23:10:00,
2013-05-05 19:15:00,71.6,35.1,30.02,ESE,117,0.0,9.8,26,0.00,,,0.00,SomeHackedPerlScript,2013-05-05 23:15:00,
2013-05-05 19:20:00,71.5,36.9,30.02,ESE,104,3.3,8.2,28,0.00,,,0.00,SomeHackedPerlScript,2013-05-05 23:20:00,
2013-05-05 19:25:00,71.3,37.9,30.02,ENE,68,4.2,8.8,29,0.00,,,0.00,SomeHackedPerlScript,2013-05-05 23:25:00,
2013-05-05 19:30:00,71.0,38.4,30.02,SE,131,3.6,9.2,30,0.00,,,0.00,SomeHackedPerlScript,2013-05-05 23:30:00,
2013-05-05 19:35:00,70.8,37.5,30.02,ESE,105,2.3,9.7,29,0.00,,,0.00,SomeHackedPerlScript,2013-05-05 23:35:00,
2013-05-05 19:40:00,70.2,37.2,30.02,East,81,5.1,10.0,29,0.00,,,0.00,SomeHackedPerlScript,2013-05-05 23:40:00,
2013-05-05 19:45:00,70.1,37.2,30.02,ENE,73,3.1,7.4,30,0.00,,,0.00,SomeHackedPerlScript,2013-05-05 23:45:00,
2013-05-05 19:50:00,69.6,38.9,30.02,ENE,58,3.6,10.8,32,0.00,,,0.00,SomeHackedPerlScript,2013-05-05 23:50:00,
2013-05-05 19:55:00,69.4,38.5,30.02,ENE,77,6.4,7.3,32,0.00,,,0.00,SomeHackedPerlScript,2013-05-05 23:55:00,
2013-05-05 20:00:00,69.1,39.3,30.02,East,83,4.3,9.5,33,0.00,,,0.00,SomeHackedPerlScript,2013-05-06 00:00:00,
2013-05-05 20:05:00,68.8,38.1,30.03,ENE,57,3.1,6.9,32,0.00,,,0.00,SomeHackedPerlScript,2013-05-06 00:05:00,
2013-05-05 20:10:00,68.5,39.1,30.03,ESE,122,3.5,6.5,34,0.00,,,0.00,SomeHackedPerlScript,2013-05-06 00:10:00,
2013-05-05 20:15:00,68.4,38.7,30.03,ENE,71,0.0,7.3,33,0.00,,,0.00,SomeHackedPerlScript,2013-05-06 00:15:00,
2013-05-05 20:20:00,68.1,38.4,30.03,ENE,70,4.3,6.4,33,0.00,,,0.00,SomeHackedPerlScript,2013-05-06 00:20:00,
2013-05-05 20:25:00,68.0,38.6,30.03,NE,35,0.0,5.0,34,0.00,,,0.00,SomeHackedPerlScript,2013-05-06 00:25:00,
2013-05-05 20:30:00,67.9,38.9,30.03,ENE,71,3.6,7.4,34,0.00,,,0.00,SomeHackedPerlScript,2013-05-06 00:30:00,
2013-05-05 20:35:00,67.4,38.6,30.03,East,87,0.0,5.2,34,0.00,,,0.00,SomeHackedPerlScript,2013-05-06 00:35:00,
2013-05-05 20:40:00,67.1,38.3,30.03,ENE,63,0.0,3.6,34,0.00,,,0.00,SomeHackedPerlScript,2013-05-06 00:40:00,
2013-05-05 20:45:00,66.7,38.6,30.03,ENE,63,0.0,3.8,35,0.00,,,0.00,SomeHackedPerlScript,2013-05-06 00:45:00,
2013-05-05 20:50:00,66.4,38.8,30.03,ENE,63,0.0,0.0,36,0.00,,,0.00,SomeHackedPerlScript,2013-05-06 00:50:00,
2013-05-05 20:55:00,66.0,39.1,30.03,ENE,63,0.0,0.0,37,0.00,,,0.00,SomeHackedPerlScript,2013-05-06 00:55:00,
2013-05-05 21:00:00,65.5,38.8,30.03,ENE,63,0.0,0.0,37,0.00,,,0.00,SomeHackedPerlScript,2013-05-06 01:00:00,
2013-05-05 21:05:00,64.9,38.9,30.03,ENE,63,0.0,0.0,38,0.00,,,0.00,SomeHackedPerlScript,2013-05-06 01:05:00,
2013-05-05 21:10:00,64.4,39.1,30.03,ENE,63,0.0,0.0,39,0.00,,,0.00,SomeHackedPerlScript,2013-05-06 01:10:00,
2013-05-05 21:15:00,63.8,39.4,30.03,ENE,63,0.0,0.0,40,0.00,,,0.00,SomeHackedPerlScript,2013-05-06 01:15:00,
2013-05-05 21:20:00,63.5,39.4,30.03,ENE,63,0.0,0.0,41,0.00,,,0.00,SomeHackedPerlScript,2013-05-06 01:20:00,
2013-05-05 21:25:00,63.2,39.6,30.03,ENE,63,0.0,0.0,41,0.00,,,0.00,SomeHackedPerlScript,2013-05-06 01:25:00,
2013-05-05 21:30:00,62.6,39.8,30.03,ENE,63,0.0,0.0,43,0.00,,,0.00,SomeHackedPerlScript,2013-05-06 01:30:00,
2013-05-05 21:35:00,62.3,40.5,30.03,ENE,63,0.0,0.0,44,0.00,,,0.00,SomeHackedPerlScript,2013-05-06 01:35:00,
2013-05-05 21:40:00,61.8,40.9,30.04,ENE,63,0.0,0.0,46,0.00,,,0.00,SomeHackedPerlScript,2013-05-06 01:40:00,
2013-05-05 21:45:00,61.4,41.2,30.04,ENE,63,0.0,0.0,47,0.00,,,0.00,SomeHackedPerlScript,2013-05-06 01:45:00,
2013-05-05 21:50:00,61.1,41.2,30.04,ENE,63,0.0,0.0,47,0.00,,,0.00,SomeHackedPerlScript,2013-05-06 01:50:00,
2013-05-05 21:55:00,60.6,40.5,30.04,ENE,63,0.0,0.0,47,0.00,,,0.00,SomeHackedPerlScript,2013-05-06 01:55:00,
2013-05-05 22:00:00,60.4,41.0,30.05,ENE,63,0.0,0.0,48,0.00,,,0.00,SomeHackedPerlScript,2013-05-06 02:00:00,
2013-05-05 22:05:00,60.0,40.6,30.05,ENE,63,0.0,0.0,48,0.00,,,0.00,SomeHackedPerlScript,2013-05-06 02:05:00,
2013-05-05 22:10:00,59.7,41.1,30.04,ENE,63,0.0,0.0,50,0.00,,,0.00,SomeHackedPerlScript,2013-05-06 02:10:00,
2013-05-05 22:15:00,59.4,40.6,30.05,ENE,63,0.0,0.0,49,0.00,,,0.00,SomeHackedPerlScript,2013-05-06 02:15:00,
2013-05-05 22:20:00,59.2,40.6,30.05,ENE,63,0.0,0.0,50,0.00,,,0.00,SomeHackedPerlScript,2013-05-06 02:20:00,
2013-05-05 22:25:00,58.8,40.6,30.05,ENE,63,0.0,0.0,50,0.00,,,0.00,SomeHackedPerlScript,2013-05-06 02:25:00,
2013-05-05 22:30:00,58.5,41.0,30.05,ENE,63,0.0,0.0,52,0.00,,,0.00,SomeHackedPerlScript,2013-05-06 02:30:00,
2013-05-05 22:35:00,58.3,41.3,30.05,ENE,63,0.0,0.0,53,0.00,,,0.00,SomeHackedPerlScript,2013-05-06 02:35:00,
2013-05-05 22:40:00,58.1,41.6,30.05,ENE,63,0.0,0.0,54,0.00,,,0.00,SomeHackedPerlScript,2013-05-06 02:40:00,
2013-05-05 22:45:00,57.8,41.3,30.05,ENE,63,0.0,0.0,54,0.00,,,0.00,SomeHackedPerlScript,2013-05-06 02:45:00,
2013-05-05 22:50:00,57.6,41.3,30.05,ENE,63,0.0,0.0,54,0.00,,,0.00,SomeHackedPerlScript,2013-05-06 02:50:00,
2013-05-05 22:55:00,57.2,41.3,30.05,ENE,63,0.0,0.0,55,0.00,,,0.00,SomeHackedPerlScript,2013-05-06 02:55:00,
2013-05-05 23:00:00,57.0,41.5,30.05,ENE,63,0.0,0.0,56,0.00,,,0.00,SomeHackedPerlScript,2013-05-06 03:00:00,
2013-05-05 23:05:00,56.7,41.4,30.05,ENE,63,0.0,0.0,56,0.00,,,0.00,SomeHackedPerlScript,2013-05-06 03:05:00,
2013-05-05 23:10:00,56.5,41.5,30.05,East,91,0.0,0.0,57,0.00,,,0.00,SomeHackedPerlScript,2013-05-06 03:10:00,
2013-05-05 23:15:00,56.1,41.5,30.05,ENE,66,1.1,2.3,57,0.00,,,0.00,SomeHackedPerlScript,2013-05-06 03:15:00,
2013-05-05 23:20:00,56.1,41.6,30.05,ENE,59,3.9,4.0,58,0.00,,,0.00,SomeHackedPerlScript,2013-05-06 03:20:00,
2013-05-05 23:25:00,56.0,41.8,30.06,ENE,64,0.0,5.4,58,0.00,,,0.00,SomeHackedPerlScript,2013-05-06 03:25:00,
2013-05-05 23:30:00,56.0,42.1,30.06,ENE,64,0.0,3.0,59,0.00,,,0.00,SomeHackedPerlScript,2013-05-06 03:30:00,
2013-05-05 23:35:00,56.0,42.5,30.06,ENE,64,2.4,0.0,60,0.00,,,0.00,SomeHackedPerlScript,2013-05-06 03:35:00,
2013-05-05 23:40:00,56.1,42.8,30.06,East,79,2.1,4.8,60,0.00,,,0.00,SomeHackedPerlScript,2013-05-06 03:40:00,
2013-05-05 23:45:00,56.2,42.9,30.06,ENE,66,1.1,3.5,61,0.00,,,0.00,SomeHackedPerlScript,2013-05-06 03:45:00,
2013-05-05 23:50:00,56.3,43.1,30.06,ENE,77,1.6,5.0,61,0.00,,,0.00,SomeHackedPerlScript,2013-05-06 03:50:00,
2013-05-05 23:55:00,56.1,43.1,30.06,ENE,70,1.6,5.8,61,0.00,,,0.00,SomeHackedPerlScript,2013-05-06 03:55:00,